createdAt,value
2018-12-21T00:01:17.962Z,86.64
2018-12-21T00:03:45.551Z,86.21
2018-12-21T00:06:13.140Z,86.67
2018-12-21T00:08:40.722Z,86.86
2018-12-21T00:11:08.295Z,87.82
2018-12-21T00:13:35.898Z,87.04
2018-12-21T00:16:03.491Z,87.47
2018-12-21T00:18:31.074Z,87.15
2018-12-21T00:20:58.641Z,87.53
2018-12-21T00:23:26.231Z,87.82
2018-12-21T00:25:53.930Z,87.56
2018-12-21T00:28:21.501Z,87.92
2018-12-21T00:30:48.557Z,87.73
2018-12-21T00:33:21.850Z,88.78
2018-12-21T00:35:55.054Z,88.79
2018-12-21T00:38:28.151Z,87.60
2018-12-21T00:41:01.340Z,87.92
2018-12-21T00:43:31.034Z,88.40
2018-12-21T00:46:00.663Z,87.55
2018-12-21T00:48:28.239Z,88.11
2018-12-21T00:50:55.824Z,86.52
2018-12-21T00:53:23.441Z,86.98
2018-12-21T00:55:51.024Z,87.16
2018-12-21T00:58:18.601Z,87.19
2018-12-21T01:00:46.186Z,86.81
2018-12-21T01:03:13.766Z,87.16
2018-12-21T01:05:41.331Z,87.89
2018-12-21T01:08:09.607Z,88.25
2018-12-21T01:10:37.188Z,87.40
2018-12-21T01:13:04.899Z,87.17
2018-12-21T01:15:32.524Z,87.60
2018-12-21T01:18:00.111Z,86.69
2018-12-21T01:20:27.694Z,88.08
2018-12-21T01:22:55.325Z,87.73
2018-12-21T01:25:22.905Z,88.47
2018-12-21T01:27:50.479Z,88.01
2018-12-21T01:30:18.053Z,89.24
2018-12-21T01:32:45.634Z,88.93
2018-12-21T01:35:13.347Z,87.92
2018-12-21T01:37:40.933Z,88.62
2018-12-21T01:40:08.534Z,88.18
2018-12-21T01:42:36.108Z,87.34
2018-12-21T01:45:04.836Z,87.42
2018-12-21T01:47:32.403Z,86.01
2018-12-21T01:49:59.975Z,85.85
2018-12-21T01:52:27.583Z,86.32
2018-12-21T01:54:55.159Z,86.91
2018-12-21T01:57:22.738Z,87.50
2018-12-21T01:59:50.357Z,87.85
2018-12-21T02:02:17.955Z,87.45
2018-12-21T02:04:45.554Z,87.44
2018-12-21T02:07:13.126Z,87.09
2018-12-21T02:09:40.695Z,88.01
2018-12-21T02:12:08.767Z,88.15
2018-12-21T02:14:36.389Z,87.09
2018-12-21T02:17:03.973Z,88.24
2018-12-21T02:19:31.782Z,87.52
2018-12-21T02:21:59.354Z,88.17
2018-12-21T02:24:26.935Z,87.82
2018-12-21T02:26:54.503Z,88.47
2018-12-21T02:29:22.085Z,88.60
2018-12-21T02:31:49.660Z,89.16
2018-12-21T02:34:17.253Z,88.49
2018-12-21T02:36:44.844Z,89.87
2018-12-21T02:39:30.903Z,89.19
2018-12-21T02:41:58.611Z,89.63
2018-12-21T02:44:26.275Z,90.31
2018-12-21T02:46:53.845Z,90.40
2018-12-21T02:49:21.423Z,88.85
2018-12-21T02:51:49.008Z,89.02
2018-12-21T02:54:16.588Z,88.44
2018-12-21T02:56:44.469Z,88.57
2018-12-21T02:59:12.178Z,89.16
2018-12-21T03:01:39.760Z,88.13
2018-12-21T03:04:07.344Z,88.24
2018-12-21T03:06:34.933Z,87.56
2018-12-21T03:09:02.524Z,88.19
2018-12-21T03:11:30.100Z,88.66
2018-12-21T03:13:57.668Z,87.62
2018-12-21T03:16:25.258Z,87.33
2018-12-21T03:18:52.836Z,87.93
2018-12-21T03:21:20.418Z,88.09
2018-12-21T03:23:48.221Z,88.12
2018-12-21T03:26:15.849Z,86.87
2018-12-21T03:28:43.427Z,86.91
2018-12-21T03:31:11.026Z,86.70
2018-12-21T03:33:38.734Z,87.25
2018-12-21T03:36:06.476Z,87.54
2018-12-21T03:38:34.124Z,88.22
2018-12-21T03:41:01.702Z,87.12
2018-12-21T03:43:29.286Z,87.59
2018-12-21T03:45:56.873Z,87.67
2018-12-21T03:48:24.448Z,88.14
2018-12-21T03:50:52.041Z,88.06
2018-12-21T03:53:19.621Z,86.82
2018-12-21T03:55:47.186Z,87.10
2018-12-21T03:58:14.753Z,87.02
2018-12-21T04:00:42.336Z,86.29
2018-12-21T04:03:10.158Z,86.19
2018-12-21T04:05:37.739Z,86.19
2018-12-21T04:08:05.326Z,85.79
2018-12-21T04:10:32.913Z,86.38
2018-12-21T04:13:00.493Z,86.34
2018-12-21T04:15:28.079Z,86.23
2018-12-21T04:17:55.654Z,85.68
2018-12-21T04:20:23.230Z,85.88
2018-12-21T04:22:50.808Z,86.10
2018-12-21T04:25:18.392Z,86.22
2018-12-21T04:27:46.014Z,86.54
2018-12-21T04:30:13.593Z,85.97
2018-12-21T04:32:41.166Z,86.88
2018-12-21T04:35:08.750Z,86.46
2018-12-21T04:37:36.348Z,86.34
2018-12-21T04:40:05.289Z,85.64
2018-12-21T04:42:32.862Z,86.64
2018-12-21T04:45:01.046Z,87.50
2018-12-21T04:47:28.631Z,86.04
2018-12-21T04:49:56.210Z,87.62
2018-12-21T04:52:23.837Z,87.12
2018-12-21T04:54:51.428Z,85.81
2018-12-21T04:57:19.068Z,86.33
2018-12-21T04:59:46.647Z,85.95
2018-12-21T05:02:14.218Z,85.70
2018-12-21T05:04:41.869Z,86.38
2018-12-21T05:07:12.573Z,86.38
2018-12-21T05:09:39.050Z,87.23
2018-12-21T05:12:06.755Z,87.39
2018-12-21T05:14:34.334Z,86.58
2018-12-21T05:17:01.905Z,86.22
2018-12-21T05:19:30.188Z,86.26
2018-12-21T05:21:57.857Z,86.66
2018-12-21T05:24:25.439Z,86.56
2018-12-21T05:26:53.253Z,85.94
2018-12-21T05:29:20.875Z,85.52
2018-12-21T05:31:48.459Z,85.49
2018-12-21T05:34:16.029Z,85.25
2018-12-21T05:36:43.628Z,85.50
2018-12-21T05:39:11.209Z,86.25
2018-12-21T05:41:38.785Z,86.03
2018-12-21T05:44:06.462Z,85.38
2018-12-21T05:46:34.039Z,84.88
2018-12-21T05:49:01.616Z,85.15
2018-12-21T05:51:29.198Z,85.44
2018-12-21T05:53:56.767Z,85.10
2018-12-21T05:56:24.837Z,84.09
2018-12-21T05:58:52.407Z,84.42
2018-12-21T06:01:19.988Z,84.54
2018-12-21T06:03:47.563Z,84.19
2018-12-21T06:06:15.335Z,84.66
2018-12-21T06:08:42.918Z,84.21
2018-12-21T06:11:10.490Z,83.88
2018-12-21T06:13:38.070Z,83.67
2018-12-21T06:16:05.688Z,83.16
2018-12-21T06:18:33.288Z,83.03
2018-12-21T06:21:00.871Z,83.27
2018-12-21T06:23:28.465Z,82.96
2018-12-21T06:25:56.041Z,84.17
2018-12-21T06:28:23.620Z,84.15
2018-12-21T06:30:51.190Z,84.67
2018-12-21T06:33:18.772Z,86.01
2018-12-21T06:35:46.335Z,85.63
2018-12-21T06:38:13.915Z,87.16
2018-12-21T06:40:42.195Z,87.58
2018-12-21T06:43:09.784Z,86.72
2018-12-21T06:45:37.360Z,86.04
2018-12-21T06:48:04.932Z,85.41
2018-12-21T06:50:32.510Z,85.62
2018-12-21T06:53:00.088Z,84.90
2018-12-21T06:55:27.666Z,83.50
2018-12-21T06:57:55.239Z,83.96
2018-12-21T07:00:22.818Z,83.17
2018-12-21T07:02:50.394Z,82.99
2018-12-21T07:05:18.706Z,83.51
2018-12-21T07:07:46.286Z,82.67
2018-12-21T07:10:13.910Z,81.97
2018-12-21T07:12:41.492Z,82.68
2018-12-21T07:15:09.100Z,82.35
2018-12-21T07:17:36.683Z,82.72
2018-12-21T07:20:04.601Z,81.67
2018-12-21T07:22:32.233Z,81.81
2018-12-21T07:24:59.806Z,82.40
2018-12-21T07:27:27.388Z,84.34
2018-12-21T07:29:55.189Z,84.94
2018-12-21T07:32:22.775Z,86.22
2018-12-21T07:34:50.457Z,87.61
2018-12-21T07:37:18.045Z,89.96
2018-12-21T07:39:45.641Z,89.73
2018-12-21T07:42:13.231Z,92.47
2018-12-21T07:44:41.622Z,92.31
2018-12-21T07:47:09.303Z,94.66
2018-12-21T07:49:36.877Z,95.63
2018-12-21T07:52:04.454Z,95.85
2018-12-21T07:54:32.029Z,96.13
2018-12-21T07:56:59.618Z,97.82
2018-12-21T07:59:27.237Z,98.47
2018-12-21T08:01:54.862Z,97.43
2018-12-21T08:04:22.514Z,98.17
2018-12-21T08:06:50.096Z,99.34
2018-12-21T08:09:17.674Z,98.13
2018-12-21T08:11:45.290Z,98.83
2018-12-21T08:14:12.959Z,99.96
2018-12-21T08:16:40.536Z,99.07
2018-12-21T08:19:08.110Z,99.99
2018-12-21T08:21:35.702Z,99.26
2018-12-21T08:24:03.276Z,98.53
2018-12-21T08:26:30.847Z,98.70
2018-12-21T08:28:58.494Z,99.52
2018-12-21T08:31:26.064Z,99.44
2018-12-21T08:33:53.639Z,100.00
2018-12-21T08:36:21.213Z,99.55
2018-12-21T08:38:48.807Z,99.33
2018-12-21T08:41:16.368Z,100.00
2018-12-21T08:43:43.958Z,100.00
2018-12-21T08:46:11.594Z,100.00
2018-12-21T08:48:39.167Z,99.86
2018-12-21T08:51:06.799Z,100.00
2018-12-21T08:53:34.381Z,99.88
2018-12-21T08:56:01.966Z,100.00
2018-12-21T08:58:29.735Z,99.69
2018-12-21T09:00:57.314Z,100.00
2018-12-21T09:03:24.889Z,99.90
2018-12-21T09:05:52.469Z,99.36
2018-12-21T09:08:20.047Z,99.79
2018-12-21T09:10:47.624Z,98.93
2018-12-21T09:13:15.251Z,98.32
2018-12-21T09:15:42.825Z,98.81
2018-12-21T09:18:10.414Z,99.04
2018-12-21T09:20:38.002Z,98.78
2018-12-21T09:23:05.582Z,97.96
2018-12-21T09:25:33.166Z,98.01
2018-12-21T09:28:00.742Z,97.50
2018-12-21T09:30:28.321Z,97.39
2018-12-21T09:32:55.896Z,97.53
2018-12-21T09:35:23.484Z,98.24
2018-12-21T09:37:51.054Z,97.34
2018-12-21T09:40:18.745Z,97.25
2018-12-21T09:42:46.930Z,97.31
2018-12-21T09:45:14.535Z,97.69
2018-12-21T09:47:42.112Z,97.82
2018-12-21T09:50:09.823Z,97.68
2018-12-21T09:52:37.407Z,97.68
2018-12-21T09:55:05.532Z,97.78
2018-12-21T09:57:33.417Z,98.31
2018-12-21T10:00:00.986Z,97.67
2018-12-21T10:02:35.658Z,97.55
2018-12-21T10:04:58.175Z,98.95
2018-12-21T10:07:27.621Z,98.93
2018-12-21T10:09:55.516Z,99.04
2018-12-21T10:12:23.100Z,99.82
2018-12-21T10:14:50.678Z,99.97
2018-12-21T10:17:18.250Z,99.71
2018-12-21T10:19:45.871Z,99.81
2018-12-21T10:22:13.508Z,99.25
2018-12-21T10:24:41.144Z,97.95
2018-12-21T10:27:08.731Z,97.68
2018-12-21T10:29:36.316Z,97.98
2018-12-21T10:32:04.043Z,97.72
2018-12-21T10:34:31.631Z,98.02
2018-12-21T10:37:00.507Z,97.09
2018-12-21T10:39:28.326Z,97.28
2018-12-21T10:41:55.907Z,97.68
2018-12-21T10:44:23.484Z,96.47
2018-12-21T10:46:51.054Z,97.07
2018-12-21T10:49:18.652Z,95.05
2018-12-21T10:51:46.224Z,94.74
2018-12-21T10:54:13.824Z,94.73
2018-12-21T10:56:41.981Z,93.61
2018-12-21T10:59:09.561Z,94.06
2018-12-21T11:01:37.203Z,94.65
2018-12-21T11:04:04.848Z,95.69
2018-12-21T11:06:32.492Z,95.67
2018-12-21T11:09:00.068Z,94.24
2018-12-21T11:11:27.960Z,93.26
2018-12-21T11:13:55.536Z,95.04
2018-12-21T11:16:23.172Z,94.91
2018-12-21T11:18:51.654Z,95.75
2018-12-21T11:21:19.319Z,95.99
2018-12-21T11:23:46.898Z,96.39
2018-12-21T11:26:14.492Z,97.38
2018-12-21T11:28:42.075Z,98.01
2018-12-21T11:31:09.660Z,99.40
2018-12-21T11:33:37.493Z,99.48
2018-12-21T11:36:05.167Z,100.00
2018-12-21T11:38:33.469Z,100.00
2018-12-21T11:41:01.058Z,100.00
2018-12-21T11:43:28.631Z,100.00
2018-12-21T11:45:56.223Z,100.00
2018-12-21T11:48:23.801Z,100.00
2018-12-21T11:50:51.386Z,100.00
2018-12-21T11:53:18.971Z,100.00
2018-12-21T11:55:46.561Z,100.00
2018-12-21T11:58:14.141Z,100.00
2018-12-21T12:00:41.726Z,100.00
2018-12-21T12:03:09.306Z,100.00
2018-12-21T12:05:36.895Z,100.00
2018-12-21T12:08:04.483Z,100.00
2018-12-21T12:10:32.086Z,100.00
2018-12-21T12:12:59.665Z,100.00
2018-12-21T12:15:28.620Z,100.00
2018-12-21T12:17:56.449Z,100.00
2018-12-21T12:20:24.031Z,100.00
2018-12-21T12:22:51.610Z,100.00
2018-12-21T12:25:19.203Z,100.00
2018-12-21T12:27:46.788Z,100.00
2018-12-21T12:30:14.367Z,100.00
2018-12-21T12:32:41.946Z,100.00
2018-12-21T12:35:09.529Z,100.00
2018-12-21T12:37:37.127Z,100.00
2018-12-21T12:40:06.092Z,100.00
2018-12-21T12:42:33.676Z,99.88
2018-12-21T12:45:01.250Z,99.30
2018-12-21T12:47:29.344Z,98.94
2018-12-21T12:49:56.919Z,99.73
2018-12-21T12:52:24.494Z,98.83
2018-12-21T12:54:52.077Z,97.32
2018-12-21T12:57:19.658Z,97.18
2018-12-21T12:59:47.239Z,97.58
2018-12-21T13:02:14.836Z,97.56
2018-12-21T13:04:42.416Z,97.65
2018-12-21T13:07:10.038Z,96.56
2018-12-21T13:09:37.639Z,96.07
2018-12-21T13:12:05.228Z,96.36
2018-12-21T13:14:32.793Z,95.57
2018-12-21T13:17:00.421Z,94.61
2018-12-21T13:19:27.998Z,95.36
2018-12-21T13:21:55.657Z,95.09
2018-12-21T13:24:23.239Z,95.25
2018-12-21T13:26:50.827Z,95.12
2018-12-21T13:29:18.410Z,95.13
2018-12-21T13:31:45.995Z,95.60
2018-12-21T13:34:13.573Z,95.04
2018-12-21T13:36:41.171Z,95.18
2018-12-21T13:39:08.779Z,94.58
2018-12-21T13:41:36.348Z,94.90
2018-12-21T13:44:03.926Z,94.33
2018-12-21T13:46:34.368Z,93.90
2018-12-21T13:49:02.474Z,94.57
2018-12-21T13:51:30.066Z,94.57
2018-12-21T13:53:57.642Z,94.64
2018-12-21T13:56:25.221Z,93.92
2018-12-21T13:58:52.795Z,93.76
2018-12-21T14:01:20.375Z,94.21
2018-12-21T14:03:47.957Z,93.88
2018-12-21T14:06:15.537Z,94.09
2018-12-21T14:08:43.102Z,93.96
2018-12-21T14:11:10.856Z,93.75
2018-12-21T14:13:38.426Z,93.81
2018-12-21T14:16:06.008Z,94.66
2018-12-21T14:18:33.640Z,94.33
2018-12-21T14:21:01.213Z,93.27
2018-12-21T14:23:28.788Z,93.51
2018-12-21T14:25:56.365Z,95.07
2018-12-21T14:28:23.954Z,94.00
2018-12-21T14:30:51.523Z,94.44
2018-12-21T14:33:19.788Z,94.20
2018-12-21T14:35:47.909Z,93.59
2018-12-21T14:38:15.485Z,93.79
2018-12-21T14:40:43.064Z,93.84
2018-12-21T14:43:10.634Z,93.45
2018-12-21T14:45:38.237Z,94.76
2018-12-21T14:48:05.813Z,94.16
2018-12-21T14:50:33.560Z,94.54
2018-12-21T14:53:01.772Z,95.50
2018-12-21T14:55:37.273Z,95.42
2018-12-21T14:57:58.948Z,95.05
2018-12-21T15:00:26.523Z,95.66
2018-12-21T15:02:54.097Z,95.27
2018-12-21T15:05:21.665Z,95.18
2018-12-21T15:07:49.245Z,96.32
2018-12-21T15:10:16.854Z,96.12
2018-12-21T15:12:44.548Z,96.41
2018-12-21T15:15:12.251Z,95.63
2018-12-21T15:17:39.831Z,96.04
2018-12-21T15:20:08.261Z,96.13
2018-12-21T15:22:35.848Z,95.25
2018-12-21T15:25:03.546Z,95.09
2018-12-21T15:27:31.131Z,95.80
2018-12-21T15:29:58.703Z,95.14
2018-12-21T15:32:26.281Z,96.08
2018-12-21T15:34:53.855Z,95.57
2018-12-21T15:37:21.441Z,95.02
2018-12-21T15:39:49.012Z,95.97
2018-12-21T15:42:16.594Z,95.45
2018-12-21T15:44:44.167Z,95.73
2018-12-21T15:47:11.752Z,95.97
2018-12-21T15:49:39.364Z,95.18
2018-12-21T15:52:06.964Z,95.97
2018-12-21T15:54:34.531Z,96.22
2018-12-21T15:57:02.143Z,97.05
2018-12-21T15:59:29.717Z,97.68
2018-12-21T16:01:57.298Z,97.91
2018-12-21T16:04:24.882Z,97.71
2018-12-21T16:06:53.305Z,97.39
2018-12-21T16:09:20.978Z,98.03
2018-12-21T16:11:48.572Z,98.35
2018-12-21T16:14:16.199Z,97.83
2018-12-21T16:16:43.846Z,96.82
2018-12-21T16:19:11.443Z,96.84
2018-12-21T16:21:39.132Z,96.17
2018-12-21T16:24:07.201Z,96.55
2018-12-21T16:26:34.929Z,96.09
2018-12-21T16:29:02.517Z,96.29
2018-12-21T16:31:30.234Z,95.66
2018-12-21T16:33:57.826Z,95.31
2018-12-21T16:36:25.406Z,95.27
2018-12-21T16:38:53.194Z,95.18
2018-12-21T16:41:20.776Z,94.10
2018-12-21T16:43:48.364Z,93.80
2018-12-21T16:46:15.952Z,94.17
2018-12-21T16:48:43.532Z,93.94
2018-12-21T16:51:11.104Z,93.82
2018-12-21T16:53:39.984Z,93.76
2018-12-21T16:56:12.394Z,93.46
2018-12-21T16:58:37.462Z,93.71
2018-12-21T17:01:05.056Z,93.27
2018-12-21T17:03:32.651Z,93.52
2018-12-21T17:06:00.242Z,92.85
2018-12-21T17:08:27.888Z,93.67
2018-12-21T17:10:56.199Z,92.64
2018-12-21T17:13:23.778Z,92.57
2018-12-21T17:15:51.362Z,91.87
2018-12-21T17:18:19.746Z,91.90
2018-12-21T17:20:47.478Z,91.82
2018-12-21T17:23:15.200Z,91.93
2018-12-21T17:25:42.854Z,91.49
2018-12-21T17:28:10.442Z,91.30
2018-12-21T17:30:38.028Z,91.53
2018-12-21T17:33:05.859Z,91.66
2018-12-21T17:35:33.442Z,91.71
2018-12-21T17:38:01.017Z,91.37
2018-12-21T17:40:28.603Z,91.22
2018-12-21T17:42:56.301Z,90.77
2018-12-21T17:45:25.246Z,91.01
2018-12-21T17:47:52.838Z,90.49
2018-12-21T17:50:20.508Z,90.87
2018-12-21T17:52:48.089Z,90.19
2018-12-21T17:55:15.741Z,89.55
2018-12-21T17:57:43.396Z,90.61
2018-12-21T18:00:13.849Z,89.92
2018-12-21T18:02:42.980Z,90.11
2018-12-21T18:05:10.726Z,90.17
2018-12-21T18:07:38.299Z,90.00
2018-12-21T18:10:09.331Z,89.75
2018-12-21T18:12:36.939Z,90.07
2018-12-21T18:15:07.140Z,89.48
2018-12-21T18:17:34.806Z,89.38
2018-12-21T18:20:02.516Z,89.38
2018-12-21T18:22:30.098Z,89.91
2018-12-21T18:24:57.713Z,89.66
2018-12-21T18:27:25.292Z,89.68
2018-12-21T18:29:53.646Z,89.24
2018-12-21T18:32:23.376Z,89.58
2018-12-21T18:34:50.981Z,89.77
2018-12-21T18:37:18.605Z,89.96
2018-12-21T18:39:46.180Z,89.66
2018-12-21T18:42:14.642Z,90.28
2018-12-21T18:44:42.258Z,90.59
2018-12-21T18:47:09.921Z,90.34
2018-12-21T18:49:37.569Z,90.05
2018-12-21T18:52:05.142Z,90.01
2018-12-21T18:54:33.468Z,90.55
2018-12-21T18:57:01.077Z,90.44
2018-12-21T18:59:28.670Z,90.32
2018-12-21T19:01:56.246Z,91.47
2018-12-21T19:04:23.888Z,90.73
2018-12-21T19:06:51.481Z,91.04
2018-12-21T19:09:19.236Z,90.30
2018-12-21T19:11:46.841Z,91.20
2018-12-21T19:14:14.728Z,90.86
2018-12-21T19:16:42.536Z,90.87
2018-12-21T19:19:10.238Z,90.03
2018-12-21T19:21:37.821Z,90.74
2018-12-21T19:24:06.217Z,90.17
2018-12-21T19:26:33.818Z,90.62
2018-12-21T19:29:01.441Z,90.54
2018-12-21T19:31:29.058Z,90.14
2018-12-21T19:33:57.541Z,90.61
2018-12-21T19:36:25.121Z,91.36
2018-12-21T19:38:52.739Z,91.33
2018-12-21T19:41:20.331Z,90.76
2018-12-21T19:43:47.941Z,91.56
2018-12-21T19:46:15.535Z,91.04
2018-12-21T19:48:43.295Z,90.98
2018-12-21T19:51:10.877Z,91.16
2018-12-21T19:53:38.480Z,91.37
2018-12-21T19:56:10.040Z,91.51
2018-12-21T19:58:37.737Z,91.70
2018-12-21T20:01:05.339Z,91.87
2018-12-21T20:03:32.928Z,92.04
2018-12-21T20:06:00.495Z,92.17
2018-12-21T20:08:29.030Z,91.88
2018-12-21T20:10:56.657Z,91.37
2018-12-21T20:13:25.229Z,92.04
2018-12-21T20:15:53.007Z,91.56
2018-12-21T20:18:20.595Z,91.97
2018-12-21T20:20:48.290Z,91.42
2018-12-21T20:23:16.132Z,91.21
2018-12-21T20:25:43.914Z,91.48
2018-12-21T20:28:12.362Z,91.79
2018-12-21T20:30:41.019Z,91.31
2018-12-21T20:33:08.698Z,91.35
2018-12-21T20:35:36.298Z,91.96
2018-12-21T20:38:05.406Z,91.46
2018-12-21T20:40:33.013Z,91.42
2018-12-21T20:43:00.777Z,91.32
2018-12-21T20:45:28.543Z,91.35
2018-12-21T20:47:56.223Z,91.81
2018-12-21T20:50:24.379Z,91.15
2018-12-21T20:52:51.957Z,91.30
2018-12-21T20:55:19.551Z,91.00
2018-12-21T20:57:48.840Z,91.09
2018-12-21T21:00:16.892Z,91.00
2018-12-21T21:02:44.868Z,91.16
2018-12-21T21:05:12.475Z,90.95
2018-12-21T21:07:40.118Z,89.98
2018-12-21T21:10:10.573Z,90.70
2018-12-21T21:12:38.281Z,90.79
2018-12-21T21:15:10.155Z,91.04
2018-12-21T21:17:37.826Z,91.02
2018-12-21T21:20:09.318Z,90.87
2018-12-21T21:22:37.058Z,90.38
2018-12-21T21:25:06.631Z,89.98
2018-12-21T21:27:34.214Z,90.63
2018-12-21T21:30:01.777Z,90.50
2018-12-21T21:32:29.421Z,89.99
2018-12-21T21:34:57.066Z,90.50
2018-12-21T21:37:24.642Z,90.19
2018-12-21T21:39:52.230Z,91.05
2018-12-21T21:42:19.811Z,92.08
2018-12-21T21:44:48.178Z,92.61
2018-12-21T21:47:15.966Z,93.32
2018-12-21T21:49:43.554Z,93.49
2018-12-21T21:52:11.303Z,93.46
2018-12-21T21:54:38.895Z,93.00
2018-12-21T21:57:06.469Z,92.78
2018-12-21T21:59:34.040Z,92.47
2018-12-21T22:02:01.610Z,92.76
2018-12-21T22:04:29.808Z,92.81
2018-12-21T22:06:58.361Z,92.93
2018-12-21T22:09:25.944Z,92.89
2018-12-21T22:11:53.521Z,92.58
2018-12-21T22:14:22.438Z,92.78
2018-12-21T22:16:50.074Z,93.56
2018-12-21T22:19:17.773Z,93.83
2018-12-21T22:21:45.346Z,96.27
2018-12-21T22:24:12.918Z,97.45
2018-12-21T22:26:40.502Z,98.67
2018-12-21T22:29:08.071Z,98.95
2018-12-21T22:31:35.657Z,98.41
2018-12-21T22:34:04.386Z,98.75
2018-12-21T22:36:31.982Z,98.53
2018-12-21T22:38:59.567Z,98.70
2018-12-21T22:41:27.348Z,98.64
2018-12-21T22:43:54.968Z,98.44
2018-12-21T22:46:22.562Z,97.91
2018-12-21T22:48:50.255Z,97.30
2018-12-21T22:51:17.848Z,96.50
2018-12-21T22:53:45.427Z,96.67
2018-12-21T22:56:13.035Z,97.40
2018-12-21T22:58:40.815Z,97.92
2018-12-21T23:01:08.534Z,99.12
2018-12-21T23:03:36.570Z,99.91
2018-12-21T23:06:04.160Z,100.00
2018-12-21T23:08:32.979Z,100.00
2018-12-21T23:11:01.401Z,100.00
2018-12-21T23:13:29.011Z,100.00
2018-12-21T23:15:56.597Z,100.00
2018-12-21T23:18:24.182Z,100.00
2018-12-21T23:20:51.768Z,100.00
2018-12-21T23:23:19.421Z,100.00
2018-12-21T23:25:47.058Z,100.00
2018-12-21T23:28:14.834Z,100.00
2018-12-21T23:30:43.146Z,100.00
2018-12-21T23:33:11.794Z,100.00
2018-12-21T23:35:39.374Z,100.00
2018-12-21T23:38:06.969Z,100.00
2018-12-21T23:40:34.551Z,99.59
2018-12-21T23:43:02.516Z,100.00
2018-12-21T23:45:30.259Z,100.00
2018-12-21T23:47:58.033Z,100.00
2018-12-21T23:50:25.643Z,100.00
2018-12-21T23:52:53.285Z,100.00
2018-12-21T23:55:20.872Z,100.00
2018-12-21T23:57:48.572Z,100.00
